Time;durP1;ratioP1;P1;durP2;ratioP2;P2;SDS_P1;SDS_P2;PMS_P1;PMS_P2;Temp;Humidity;BMP_temperature;BMP_pressure;BME280_temperature;BME280_humidity;BME280_pressure;Samples;Min_cycle;Max_cycle;Signal;HPM_P1;HPM_P2
2022/05/24 00:01:28;;;;;;;7.45;2.10;;;;;;;-146.19;100.00;58918.88;5067608;28;20060;-52
2022/05/24 00:03:57;;;;;;;4.93;1.67;;;;;;;-146.19;100.00;58918.88;5066689;28;20091;-50
2022/05/24 00:06:27;;;;;;;5.17;2.00;;;;;;;-146.19;100.00;58918.88;5067983;28;20079;-47
2022/05/24 00:08:56;;;;;;;4.50;1.85;;;;;;;-146.19;100.00;58918.88;5065435;28;20263;-48
2022/05/24 00:11:33;;;;;;;4.00;1.95;;;;;;;-146.19;100.00;58918.88;5067193;28;20063;-51
2022/05/24 00:14:02;;;;;;;;;;;;;;;-146.19;100.00;58918.88;5068509;28;20068;-52
2022/05/24 00:16:30;;;;;;;4.97;1.88;;;;;;;-146.19;100.00;58918.88;5065819;28;20346;-48
2022/05/24 00:18:59;;;;;;;3.83;2.00;;;;;;;-146.19;100.00;58918.88;5066723;28;20076;-51
2022/05/24 00:21:27;;;;;;;7.20;1.92;;;;;;;-146.19;100.00;58918.88;5067067;28;20087;-51
2022/05/24 00:23:56;;;;;;;6.47;2.45;;;;;;;-146.19;100.00;58918.88;5063767;28;20068;-49
2022/05/24 00:26:29;;;;;;;4.32;1.90;;;;;;;-146.19;100.00;58918.88;5066889;28;20067;-50
2022/05/24 00:28:58;;;;;;;4.30;1.80;;;;;;;-146.19;100.00;58918.88;5067342;28;20060;-54
2022/05/24 00:31:27;;;;;;;4.00;2.00;;;;;;;-146.19;100.00;58918.88;5066158;28;20072;-50
2022/05/24 00:33:55;;;;;;;3.85;1.80;;;;;;;-146.19;100.00;58918.88;5066644;28;20068;-55
2022/05/24 00:36:23;;;;;;;4.80;1.67;;;;;;;-146.19;100.00;58918.88;5063391;28;20083;-55
2022/05/24 00:38:51;;;;;;;4.20;1.60;;;;;;;-146.19;100.00;58918.88;5066039;28;20071;-56
2022/05/24 00:41:25;;;;;;;4.93;2.00;;;;;;;-146.19;100.00;58918.88;5062593;28;20567;-55
2022/05/24 00:43:57;;;;;;;3.50;2.00;;;;;;;-146.19;100.00;58918.88;5063115;28;20076;-51
2022/05/24 00:46:29;;;;;;;3.42;2.05;;;;;;;-146.19;100.00;58918.88;5066148;28;20060;-49
2022/05/24 00:48:59;;;;;;;3.90;2.15;;;;;;;-146.19;100.00;58918.88;5065865;28;20072;-53
2022/05/24 00:51:30;;;;;;;3.95;2.05;;;;;;;-146.19;100.00;58918.88;5064411;28;20083;-49
2022/05/24 00:53:59;;;;;;;3.30;1.73;;;;;;;-146.19;100.00;58918.88;5066847;28;20056;-53
2022/05/24 00:56:49;;;;;;;5.13;2.10;;;;;;;-146.19;100.00;58918.88;5067752;28;20072;-52
2022/05/24 00:59:24;;;;;;;7.03;1.90;;;;;;;-146.19;100.00;58918.88;5058089;28;20074;-50
2022/05/24 01:01:53;;;;;;;4.13;2.13;;;;;;;-146.19;100.00;58918.88;5064328;28;20090;-51
2022/05/24 01:04:22;;;;;;;4.35;2.15;;;;;;;-146.19;100.00;58918.88;5067112;28;20056;-48
2022/05/24 01:06:50;;;;;;;6.15;2.38;;;;;;;-146.19;100.00;58918.88;5066733;28;20076;-50
2022/05/24 01:09:21;;;;;;;5.18;2.25;;;;;;;-146.19;100.00;58918.88;5066002;28;20133;-48
2022/05/24 01:11:52;;;;;;;3.92;2.17;;;;;;;-146.19;100.00;58918.88;5063107;28;20519;-51
2022/05/24 01:14:20;;;;;;;;;;;;;;;-146.19;100.00;58918.88;5063778;28;20072;-49
2022/05/24 01:16:49;;;;;;;5.45;2.40;;;;;;;-146.19;100.00;58918.88;5066137;28;19955;-47
2022/05/24 01:19:25;;;;;;;3.55;2.30;;;;;;;-146.19;100.00;58918.88;5064133;28;20075;-55
2022/05/24 01:21:56;;;;;;;2.88;2.13;;;;;;;-146.19;100.00;58918.88;5064417;28;20072;-51
2022/05/24 01:24:29;;;;;;;5.78;2.75;;;;;;;-146.19;100.00;58918.88;5064437;28;20488;-53
2022/05/24 01:26:59;;;;;;;4.80;3.00;;;;;;;-146.19;100.00;58918.88;5063745;28;20065;-51
2022/05/24 01:29:27;;;;;;;3.65;2.55;;;;;;;-146.19;100.00;58918.88;5061083;28;20067;-49
2022/05/24 01:37:28;;;;;;;5.03;3.10;;;;;;;-146.19;100.00;58918.88;5065812;28;20523;-49
2022/05/24 01:39:58;;;;;;;6.63;3.33;;;;;;;-146.19;100.00;58918.88;5064072;28;20084;-48
2022/05/24 01:42:28;;;;;;;5.85;2.70;;;;;;;-146.19;100.00;58918.88;5067312;28;20083;-49
2022/05/24 01:44:59;;;;;;;4.65;3.50;;;;;;;-146.19;100.00;58918.88;5065080;28;20068;-49
2022/05/24 01:47:28;;;;;;;4.85;2.97;;;;;;;-146.19;100.00;58918.88;5066451;28;20075;-53
2022/05/24 01:49:59;;;;;;;6.20;2.80;;;;;;;-146.19;100.00;58918.88;5068872;28;20068;-51
2022/05/24 01:52:29;;;;;;;7.65;3.17;;;;;;;-146.19;100.00;58918.88;5066361;28;20071;-53
2022/05/24 01:54:58;;;;;;;;;;;;;;;-146.19;100.00;58918.88;5068769;28;20102;-52
2022/05/24 01:57:31;;;;;;;6.50;2.88;;;;;;;-146.19;100.00;58918.88;5066915;28;20538;-50
2022/05/24 02:00:01;;;;;;;6.28;2.95;;;;;;;-146.19;100.00;58918.88;5064777;28;20060;-47
2022/05/24 02:02:29;;;;;;;6.55;3.20;;;;;;;-146.19;100.00;58918.88;5063220;28;20530;-51
2022/05/24 02:04:58;;;;;;;5.32;3.35;;;;;;;-146.19;100.00;58918.88;5069684;28;20493;-48
2022/05/24 02:07:27;;;;;;;5.55;3.40;;;;;;;-146.19;100.00;58918.88;5069671;28;20553;-52
2022/05/24 02:09:57;;;;;;;5.90;3.05;;;;;;;-146.19;100.00;58918.88;5068206;28;20095;-48
2022/05/24 02:12:29;;;;;;;5.93;3.05;;;;;;;-146.19;100.00;58918.88;5067177;28;20080;-47
2022/05/24 02:15:01;;;;;;;5.05;3.13;;;;;;;-146.19;100.00;58918.88;5058953;28;20542;-52
2022/05/24 02:17:33;;;;;;;4.47;3.08;;;;;;;-146.19;100.00;58918.88;5064964;28;20064;-51
2022/05/24 02:20:03;;;;;;;5.72;2.85;;;;;;;-146.19;100.00;58918.88;5063706;28;20079;-54
2022/05/24 02:22:32;;;;;;;6.03;3.00;;;;;;;-146.19;100.00;58918.88;5064424;28;20082;-54
2022/05/24 02:25:04;;;;;;;8.63;5.70;;;;;;;-146.19;100.00;58918.88;5066362;28;20072;-48
2022/05/24 02:27:39;;;;;;;5.65;2.72;;;;;;;-146.19;100.00;58918.88;5070251;28;20079;-49
2022/05/24 02:30:08;;;;;;;5.05;3.25;;;;;;;-146.19;100.00;58918.88;5065129;28;20072;-54
2022/05/24 02:32:37;;;;;;;8.05;3.38;;;;;;;-146.19;100.00;58918.88;5070894;28;20823;-48
2022/05/24 02:35:06;;;;;;;6.85;3.47;;;;;;;-146.19;100.00;58918.88;5071235;28;20071;-49
2022/05/24 02:37:35;;;;;;;5.57;3.00;;;;;;;-146.19;100.00;58918.88;5070346;28;20061;-48
2022/05/24 02:42:47;;;;;;;6.88;3.33;;;;;;;-146.19;100.00;58918.88;5016856;28;20087;-49
2022/05/24 02:45:16;;;;;;;4.28;3.00;;;;;;;-146.19;100.00;58918.88;5065716;28;20527;-49
2022/05/24 02:47:44;;;;;;;5.72;3.47;;;;;;;-146.19;100.00;58918.88;5069833;28;20064;-53
2022/05/24 02:50:13;;;;;;;5.68;3.08;;;;;;;-146.19;100.00;58918.88;5072144;28;20072;-50
2022/05/24 02:52:41;;;;;;;6.20;3.00;;;;;;;-146.19;100.00;58918.88;5070509;28;20060;-48
2022/05/24 02:55:11;;;;;;;6.47;3.30;;;;;;;-146.19;100.00;58918.88;5070542;28;20076;-51
2022/05/24 02:57:40;;;;;;;5.50;2.90;;;;;;;-146.19;100.00;58918.88;5066549;28;20456;-46
2022/05/24 03:00:13;;;;;;;5.28;3.00;;;;;;;-146.19;100.00;58918.88;5069708;28;20558;-52
2022/05/24 03:02:42;;;;;;;6.65;3.42;;;;;;;-146.19;100.00;58918.88;5070287;28;20044;-53
2022/05/24 03:05:12;;;;;;;6.32;3.13;;;;;;;-146.19;100.00;58918.88;5070788;28;20079;-47
2022/05/24 03:10:27;;;;;;;5.07;3.00;;;;;;;-146.19;100.00;58918.88;5069698;28;20063;-48
2022/05/24 03:15:43;;;;;;;5.78;3.25;;;;;;;-146.19;100.00;58918.88;5069778;28;20068;-47
2022/05/24 03:18:13;;;;;;;6.25;3.55;;;;;;;-146.19;100.00;58918.88;5069929;28;20544;-53
2022/05/24 03:20:43;;;;;;;6.90;3.50;;;;;;;-146.19;100.00;58918.88;5069954;28;20088;-51
2022/05/24 03:23:12;;;;;;;7.25;3.28;;;;;;;-146.19;100.00;58918.88;5069614;28;20546;-53
2022/05/24 03:25:40;;;;;;;7.25;3.60;;;;;;;-146.19;100.00;58918.88;5070541;28;20495;-49
2022/05/24 03:28:09;;;;;;;5.10;3.33;;;;;;;-146.19;100.00;58918.88;5069655;28;20080;-51
2022/05/24 03:30:39;;;;;;;8.23;3.40;;;;;;;-146.19;100.00;58918.88;5069803;28;20091;-51
2022/05/24 03:33:10;;;;;;;6.68;3.28;;;;;;;-146.19;100.00;58918.88;5069007;28;20052;-51
2022/05/24 03:35:38;;;;;;;8.38;3.78;;;;;;;-146.19;100.00;58918.88;5069473;28;20068;-47
2022/05/24 03:38:07;;;;;;;5.60;3.15;;;;;;;-146.19;100.00;58918.88;5069546;28;20072;-51
2022/05/24 03:40:35;;;;;;;6.63;3.30;;;;;;;-146.19;100.00;58918.88;5068494;28;20075;-48
2022/05/24 03:43:04;;;;;;;7.18;3.50;;;;;;;-146.19;100.00;58918.88;5069787;28;20098;-52
2022/05/24 03:45:32;;;;;;;5.07;3.33;;;;;;;-146.19;100.00;58918.88;5070510;28;20079;-48
2022/05/24 03:48:01;;;;;;;7.15;2.92;;;;;;;-146.19;100.00;58918.88;5069490;28;20839;-49
2022/05/24 03:50:31;;;;;;;6.63;3.30;;;;;;;-146.19;100.00;58918.88;5068734;28;20064;-49
2022/05/24 03:52:59;;;;;;;6.75;3.22;;;;;;;-146.19;100.00;58918.88;5069482;28;20526;-52
2022/05/24 03:55:27;;;;;;;6.25;3.20;;;;;;;-146.19;100.00;58918.88;5068153;28;20064;-52
2022/05/24 03:58:01;;;;;;;6.35;3.03;;;;;;;-146.19;100.00;58918.88;5069715;28;20124;-51
2022/05/24 04:00:32;;;;;;;4.63;3.20;;;;;;;-146.19;100.00;58918.88;5068117;28;20084;-51
2022/05/24 04:03:01;;;;;;;6.35;3.45;;;;;;;-146.19;100.00;58918.88;5068807;28;20100;-54
2022/05/24 04:05:32;;;;;;;7.22;3.35;;;;;;;-146.19;100.00;58918.88;5069003;28;20565;-52
2022/05/24 04:08:02;;;;;;;7.50;3.60;;;;;;;-146.19;100.00;58918.88;5062947;28;20075;-57
2022/05/24 04:10:31;;;;;;;7.13;3.13;;;;;;;-146.19;100.00;58918.88;5068977;28;20057;-50
2022/05/24 04:13:00;;;;;;;6.70;2.92;;;;;;;-146.19;100.00;58918.88;5069088;28;20091;-47
2022/05/24 04:15:29;;;;;;;5.43;3.10;;;;;;;-146.19;100.00;58918.88;5069241;28;20558;-52
2022/05/24 04:17:57;;;;;;;5.93;2.90;;;;;;;-146.19;100.00;58918.88;5069122;28;20080;-53
2022/05/24 04:20:27;;;;;;;5.82;3.10;;;;;;;-146.19;100.00;58918.88;5068922;28;20063;-49
2022/05/24 04:22:57;;;;;;;5.60;3.08;;;;;;;-146.19;100.00;58918.88;5062996;28;20067;-52
2022/05/24 04:25:27;;;;;;;3.88;2.80;;;;;;;-146.19;100.00;58918.88;5068535;28;20067;-49
2022/05/24 04:27:55;;;;;;;4.70;3.00;;;;;;;-146.19;100.00;58918.88;5068422;28;20073;-48
2022/05/24 04:30:23;;;;;;;4.53;2.83;;;;;;;-146.19;100.00;58918.88;5068902;28;20084;-47
2022/05/24 04:32:52;;;;;;;5.50;3.08;;;;;;;-146.19;100.00;58918.88;5064030;28;20079;-53
2022/05/24 04:35:20;;;;;;;5.43;3.10;;;;;;;-146.19;100.00;58918.88;5068655;28;20083;-50
2022/05/24 04:37:48;;;;;;;4.53;3.05;;;;;;;-146.19;100.00;58918.88;5065503;28;20063;-54
2022/05/24 04:40:19;;;;;;;5.53;2.72;;;;;;;-146.19;100.00;58918.88;5068167;28;20063;-52
2022/05/24 04:42:46;;;;;;;4.72;2.88;;;;;;;-146.19;100.00;58918.88;5068980;28;20545;-48
2022/05/24 04:45:16;;;;;;;5.57;2.75;;;;;;;-146.19;100.00;58918.88;5067684;28;20041;-51
2022/05/24 04:47:44;;;;;;;4.60;2.75;;;;;;;-146.19;100.00;58918.88;5068666;28;20597;-50
2022/05/24 04:50:13;;;;;;;4.50;2.72;;;;;;;-146.19;100.00;58918.88;5067666;28;20068;-51
2022/05/24 04:52:42;;;;;;;6.35;3.10;;;;;;;-146.19;100.00;58918.88;5068650;28;20071;-52
2022/05/24 04:55:14;;;;;;;6.72;3.10;;;;;;;-146.19;100.00;58918.88;5068327;28;20068;-47
2022/05/24 04:57:44;;;;;;;4.28;2.67;;;;;;;-146.19;100.00;58918.88;5068776;28;20527;-49
2022/05/24 05:00:14;;;;;;;4.65;3.05;;;;;;;-146.19;100.00;58918.88;5072517;28;20068;-52
2022/05/24 05:02:43;;;;;;;4.07;2.80;;;;;;;-146.19;100.00;58918.88;5068059;28;20075;-51
2022/05/24 05:05:11;;;;;;;5.95;3.00;;;;;;;-146.19;100.00;58918.88;5064922;28;20060;-50
2022/05/24 05:07:40;;;;;;;5.18;2.70;;;;;;;-146.19;100.00;58918.88;5068407;28;20064;-51
2022/05/24 05:10:10;;;;;;;6.25;2.63;;;;;;;-146.19;100.00;58918.88;5067707;28;20082;-49
2022/05/24 05:12:38;;;;;;;4.32;2.65;;;;;;;-146.19;100.00;58918.88;5068384;28;20080;-49
2022/05/24 05:15:09;;;;;;;5.60;2.75;;;;;;;-146.19;100.00;58918.88;5068203;28;20487;-52
2022/05/24 05:17:37;;;;;;;5.43;2.63;;;;;;;-146.19;100.00;58918.88;5066843;28;20454;-46
2022/05/24 05:20:07;;;;;;;7.72;2.55;;;;;;;-146.19;100.00;58918.88;5067049;28;20067;-47
2022/05/24 05:22:37;;;;;;;5.38;2.55;;;;;;;-146.19;100.00;58918.88;5068326;28;20072;-48
2022/05/24 05:25:06;;;;;;;3.53;2.60;;;;;;;-146.19;100.00;58918.88;5067863;28;20118;-49
2022/05/24 05:27:34;;;;;;;4.00;2.40;;;;;;;-146.19;100.00;58918.88;5070697;28;20071;-51
2022/05/24 05:32:52;;;;;;;3.90;2.45;;;;;;;-146.19;100.00;58918.88;5067589;28;20068;-51
2022/05/24 05:35:20;;;;;;;3.83;2.40;;;;;;;-146.19;100.00;58918.88;5068118;28;20562;-48
2022/05/24 05:37:48;;;;;;;3.30;2.35;;;;;;;-146.19;100.00;58918.88;5068258;28;20076;-49
2022/05/24 05:40:17;;;;;;;5.18;2.50;;;;;;;-146.19;100.00;58918.88;5067893;28;20065;-49
2022/05/24 05:42:45;;;;;;;6.72;2.85;;;;;;;-146.19;100.00;58918.88;5068219;28;20095;-53
2022/05/24 05:45:15;;;;;;;4.07;2.60;;;;;;;-146.19;100.00;58918.88;5067609;28;20131;-49
2022/05/24 05:47:43;;;;;;;5.88;2.72;;;;;;;-146.19;100.00;58918.88;5067179;28;20063;-48
2022/05/24 05:50:12;;;;;;;3.65;2.70;;;;;;;-146.19;100.00;58918.88;5067439;28;20068;-50
2022/05/24 05:52:41;;;;;;;6.60;2.80;;;;;;;-146.19;100.00;58918.88;5067964;28;20072;-46
2022/05/24 05:55:09;;;;;;;7.93;3.25;;;;;;;-146.19;100.00;58918.88;5067927;28;20084;-47
2022/05/24 05:57:41;;;;;;;4.18;2.72;;;;;;;-146.19;100.00;58918.88;5067767;28;20081;-49
2022/05/24 06:00:11;;;;;;;6.53;3.03;;;;;;;-146.19;100.00;58918.88;5064187;28;20068;-47
2022/05/24 06:02:41;;;;;;;3.72;2.80;;;;;;;-146.19;100.00;58918.88;5067139;28;20068;-51
2022/05/24 06:05:10;;;;;;;7.03;3.00;;;;;;;-146.19;100.00;58918.88;5067617;28;20566;-48
2022/05/24 06:07:40;;;;;;;5.63;3.45;;;;;;;-146.19;100.00;58918.88;5067881;28;20072;-48
2022/05/24 06:10:10;;;;;;;4.80;2.63;;;;;;;-146.19;100.00;58918.88;5067275;28;20086;-48
2022/05/24 06:12:38;;;;;;;4.78;2.72;;;;;;;-146.19;100.00;58918.88;5068027;28;20427;-47
2022/05/24 06:15:08;;;;;;;5.07;2.70;;;;;;;-146.19;100.00;58918.88;5067825;28;20139;-50
2022/05/24 06:17:44;;;;;;;4.65;2.80;;;;;;;-146.19;100.00;58918.88;5067677;28;20451;-51
2022/05/24 06:20:13;;;;;;;5.43;3.03;;;;;;;-146.19;100.00;58918.88;5061353;28;20061;-52
2022/05/24 06:22:42;;;;;;;5.50;2.88;;;;;;;-146.19;100.00;58918.88;5061754;28;20079;-49
2022/05/24 06:25:12;;;;;;;6.43;2.65;;;;;;;-146.19;100.00;58918.88;5070944;28;20084;-53
2022/05/24 06:27:41;;;;;;;5.68;2.70;;;;;;;-146.19;100.00;58918.88;5066675;28;20073;-52
2022/05/24 06:30:10;;;;;;;5.07;2.70;;;;;;;-146.19;100.00;58918.88;5066976;28;20064;-49
2022/05/24 06:32:38;;;;;;;5.82;2.90;;;;;;;-146.19;100.00;58918.88;5070730;28;20064;-48
2022/05/24 06:35:08;;;;;;;4.68;2.70;;;;;;;-146.19;100.00;58918.88;5070798;28;20072;-57
2022/05/24 06:37:36;;;;;;;4.47;2.90;;;;;;;-146.19;100.00;58918.88;5071403;28;20060;-52
2022/05/24 06:40:07;;;;;;;4.78;2.75;;;;;;;-146.19;100.00;58918.88;5070513;28;20068;-51
2022/05/24 06:42:36;;;;;;;7.22;3.17;;;;;;;-146.19;100.00;58918.88;5067559;28;20084;-50
2022/05/24 06:45:05;;;;;;;6.45;3.00;;;;;;;-146.19;100.00;58918.88;5070676;28;20064;-49
2022/05/24 06:47:33;;;;;;;5.07;2.75;;;;;;;-146.19;100.00;58918.88;5070156;28;20086;-52
2022/05/24 06:50:02;;;;;;;4.22;2.83;;;;;;;-146.19;100.00;58918.88;5070648;28;20080;-49
2022/05/24 06:52:30;;;;;;;7.97;2.75;;;;;;;-146.19;100.00;58918.88;5070404;28;20091;-47
2022/05/24 06:54:58;;;;;;;4.10;2.85;;;;;;;-146.19;100.00;58918.88;5071888;28;20079;-49
2022/05/24 06:57:28;;;;;;;4.68;2.80;;;;;;;-146.19;100.00;58918.88;5070956;28;20082;-52
2022/05/24 07:02:42;;;;;;;5.03;2.88;;;;;;;-146.19;100.00;58918.88;5070236;28;20467;-50
2022/05/24 07:05:13;;;;;;;4.70;2.72;;;;;;;-146.19;100.00;58918.88;5070825;28;20068;-49
2022/05/24 07:07:41;;;;;;;5.03;2.42;;;;;;;-146.19;100.00;58918.88;5070269;28;20064;-48
2022/05/24 07:10:13;;;;;;;3.97;2.70;;;;;;;-146.19;100.00;58918.88;5068905;28;20087;-52
2022/05/24 07:12:45;;;;;;;4.63;2.80;;;;;;;-146.19;100.00;58918.88;5068291;28;20582;-49
2022/05/24 07:15:14;;;;;;;3.88;2.40;;;;;;;-146.19;100.00;58918.88;5064408;28;20044;-52
2022/05/24 07:17:42;;;;;;;5.07;3.05;;;;;;;-146.19;100.00;58918.88;5069662;28;20087;-54
2022/05/24 07:20:11;;;;;;;4.68;2.72;;;;;;;-146.19;100.00;58918.88;5070078;28;20652;-46
2022/05/24 07:22:39;;;;;;;4.45;2.80;;;;;;;-146.19;100.00;58918.88;5070141;28;20060;-51
2022/05/24 07:25:08;;;;;;;4.22;2.80;;;;;;;-146.19;100.00;58918.88;5068770;28;20068;-51
2022/05/24 07:27:37;;;;;;;7.15;2.53;;;;;;;-146.19;100.00;58918.88;5070113;28;20084;-50
2022/05/24 07:30:09;;;;;;;6.47;2.83;;;;;;;-146.19;100.00;58918.88;5069735;28;20079;-52
2022/05/24 07:32:37;;;;;;;4.45;2.85;;;;;;;-146.19;100.00;58918.88;5069954;28;20106;-54
2022/05/24 07:35:06;;;;;;;5.10;2.75;;;;;;;-146.19;100.00;58918.88;5069669;28;20068;-52
2022/05/24 07:37:35;;;;;;;3.63;2.60;;;;;;;-146.19;100.00;58918.88;5073094;28;20459;-50
2022/05/24 07:45:51;;;;;;;7.20;2.58;;;;;;;-146.19;100.00;58918.88;5036228;28;20530;-48
2022/05/24 07:48:20;;;;;;;4.57;2.60;;;;;;;-146.19;100.00;58918.88;5056586;28;20671;-50
2022/05/24 07:50:48;;;;;;;5.65;2.90;;;;;;;-146.19;100.00;58918.88;5069397;28;20063;-50
2022/05/24 07:53:16;;;;;;;3.58;2.80;;;;;;;-146.19;100.00;58918.88;5060511;28;20753;-49
2022/05/24 07:55:45;;;;;;;5.45;3.03;;;;;;;-146.19;100.00;58918.88;5069513;28;20541;-49
2022/05/24 07:58:14;;;;;;;3.30;2.55;;;;;;;-146.19;100.00;58918.88;5069017;28;20076;-50
2022/05/24 08:00:42;;;;;;;3.03;2.30;;;;;;;-146.19;100.00;58918.88;5069708;28;20075;-51
2022/05/24 08:03:12;;;;;;;4.97;2.75;;;;;;;-146.19;100.00;58918.88;5069175;28;20068;-51
2022/05/24 08:05:41;;;;;;;5.30;3.03;;;;;;;-146.19;100.00;58918.88;5069594;28;20082;-48
2022/05/24 08:08:10;;;;;;;5.63;2.75;;;;;;;-146.19;100.00;58918.88;5067487;28;20060;-49
2022/05/24 08:10:39;;;;;;;10.23;3.05;;;;;;;-146.19;100.00;58918.88;5068263;28;20083;-53
2022/05/24 08:13:10;;;;;;;4.40;2.80;;;;;;;-146.19;100.00;58918.88;5069066;28;20088;-49
2022/05/24 08:15:39;;;;;;;4.55;3.08;;;;;;;-146.19;100.00;58918.88;5069186;28;20083;-54
2022/05/24 08:18:08;;;;;;;5.97;2.40;;;;;;;-146.19;100.00;58918.88;5068595;28;20716;-54
2022/05/24 08:20:38;;;;;;;9.23;2.53;;;;;;;-146.19;100.00;58918.88;5068806;28;20076;-51
2022/05/24 08:23:06;;;;;;;4.07;2.60;;;;;;;-146.19;100.00;58918.88;5068748;28;20072;-47
2022/05/24 08:25:39;;;;;;;5.70;2.72;;;;;;;-146.19;100.00;58918.88;5068964;28;20095;-52
2022/05/24 08:28:08;;;;;;;3.55;2.40;;;;;;;-146.19;100.00;58918.88;5068599;28;20072;-53
2022/05/24 08:30:38;;;;;;;3.90;2.60;;;;;;;-146.19;100.00;58918.88;5068978;28;20556;-55
2022/05/24 08:33:07;;;;;;;4.45;2.60;;;;;;;-146.19;100.00;58918.88;5068919;28;20465;-55
2022/05/24 08:35:37;;;;;;;4.10;2.67;;;;;;;-146.19;100.00;58918.88;5065667;28;20514;-50
2022/05/24 08:38:06;;;;;;;;;;;;;;;-146.19;100.00;58918.88;5069123;28;20068;-48
2022/05/24 08:40:35;;;;;;;5.32;2.60;;;;;;;-146.19;100.00;58918.88;5068809;28;19955;-47
2022/05/24 08:43:15;;;;;;;4.18;2.60;;;;;;;-146.19;100.00;58918.88;5068620;28;20130;-51
2022/05/24 08:48:41;;;;;;;5.63;2.60;;;;;;;-146.19;100.00;58918.88;5066634;28;20500;-53
2022/05/24 08:51:15;;;;;;;4.95;2.40;;;;;;;-146.19;100.00;58918.88;5063150;28;20068;-50
2022/05/24 08:53:46;;;;;;;3.80;2.38;;;;;;;-146.19;100.00;58918.88;5067547;28;20072;-54
2022/05/24 08:56:17;;;;;;;3.45;2.28;;;;;;;-146.19;100.00;58918.88;5068499;28;20060;-50
2022/05/24 08:58:50;;;;;;;3.53;2.30;;;;;;;-146.19;100.00;58918.88;5064280;28;20110;-48
2022/05/24 09:01:25;;;;;;;2.92;1.90;;;;;;;-146.19;100.00;58918.88;5068087;28;20070;-48
2022/05/24 09:03:53;;;;;;;4.68;2.30;;;;;;;-146.19;100.00;58918.88;5068681;28;20530;-48
2022/05/24 09:06:35;;;;;;;3.53;2.00;;;;;;;-146.19;100.00;58918.88;5067815;28;20444;-52
2022/05/24 09:09:14;;;;;;;4.13;2.25;;;;;;;-146.19;100.00;58918.88;5067941;28;20083;-54
2022/05/24 09:11:49;;;;;;;3.30;2.30;;;;;;;-146.19;100.00;58918.88;5063683;28;20072;-51
2022/05/24 09:14:23;;;;;;;4.47;2.50;;;;;;;-146.19;100.00;58918.88;5068284;28;20075;-48
2022/05/24 09:16:58;;;;;;;2.38;2.15;;;;;;;-146.19;100.00;58918.88;5067718;28;20514;-45
2022/05/24 09:19:30;;;;;;;3.85;2.33;;;;;;;-146.19;100.00;58918.88;5065029;28;20072;-52
2022/05/24 09:22:01;;;;;;;4.90;2.40;;;;;;;-146.19;100.00;58918.88;5068137;28;20082;-48
2022/05/24 09:24:41;;;;;;;4.55;2.00;;;;;;;-146.19;100.00;58918.88;5068891;28;20087;-47
2022/05/24 09:27:12;;;;;;;;;;;;;;;-146.19;100.00;58918.88;5068665;28;20709;-52
2022/05/24 09:29:57;;;;;;;4.10;2.00;;;;;;;-146.19;100.00;58918.88;5065803;28;20359;-53
2022/05/24 09:32:38;;;;;;;4.47;2.22;;;;;;;-146.19;100.00;58918.88;5060872;28;20481;-50
2022/05/24 09:35:23;;;;;;;4.47;2.25;;;;;;;-146.19;100.00;58918.88;5068074;28;20138;-48
2022/05/24 09:38:08;;;;;;;4.93;2.03;;;;;;;-146.19;100.00;58918.88;5065993;28;20510;-52
2022/05/24 09:40:52;;;;;;;3.17;2.10;;;;;;;-146.19;100.00;58918.88;5062840;28;20079;-48
2022/05/24 09:43:26;;;;;;;3.65;1.95;;;;;;;-146.19;100.00;58918.88;5069486;28;20468;-53
2022/05/24 09:46:01;;;;;;;3.53;2.30;;;;;;;-146.19;100.00;58918.88;5062801;28;20083;-48
2022/05/24 09:48:32;;;;;;;3.08;2.45;;;;;;;-146.19;100.00;58918.88;5068099;28;20151;-49
2022/05/24 09:51:03;;;;;;;3.13;1.90;;;;;;;-146.19;100.00;58918.88;5068001;28;20064;-49
2022/05/24 09:53:33;;;;;;;3.40;2.20;;;;;;;-146.19;100.00;58918.88;5069117;28;20064;-53
2022/05/24 09:56:04;;;;;;;5.65;2.03;;;;;;;-146.19;100.00;58918.88;5068133;28;20075;-52
2022/05/24 09:58:34;;;;;;;4.82;1.80;;;;;;;-146.19;100.00;58918.88;5069775;28;20064;-50
2022/05/24 10:01:06;;;;;;;2.97;2.10;;;;;;;-146.19;100.00;58918.88;5067289;28;20076;-53
2022/05/24 10:03:37;;;;;;;4.18;1.85;;;;;;;-146.19;100.00;58918.88;5071935;28;20181;-46
2022/05/24 10:06:13;;;;;;;3.20;1.90;;;;;;;-146.19;100.00;58918.88;5071370;28;20067;-52
2022/05/24 10:08:44;;;;;;;3.90;1.95;;;;;;;-146.19;100.00;58918.88;5069633;28;20064;-53
2022/05/24 10:11:29;;;;;;;3.50;1.75;;;;;;;-146.19;100.00;58918.88;5071351;28;20064;-48
2022/05/24 10:14:13;;;;;;;2.58;1.90;;;;;;;-146.19;100.00;58918.88;5067612;28;20718;-48
2022/05/24 10:16:46;;;;;;;8.60;1.90;;;;;;;-146.19;100.00;58918.88;5068938;28;20079;-49
2022/05/24 10:19:31;;;;;;;2.80;1.85;;;;;;;-146.19;100.00;58918.88;5069589;28;20088;-49
2022/05/24 10:22:04;;;;;;;4.35;2.20;;;;;;;-146.19;100.00;58918.88;5068988;28;20084;-48
2022/05/24 10:24:42;;;;;;;4.72;2.20;;;;;;;-146.19;100.00;58918.88;5076325;28;20275;-52
2022/05/24 10:27:15;;;;;;;3.25;2.15;;;;;;;-146.19;100.00;58918.88;5064632;28;20064;-53
2022/05/24 10:29:51;;;;;;;3.28;2.00;;;;;;;-146.19;100.00;58918.88;5070891;28;20080;-48
2022/05/24 10:38:19;;;;;;;3.45;2.00;;;;;;;-146.19;100.00;58918.88;5066221;28;20071;-50
2022/05/24 10:40:57;;;;;;;3.35;2.08;;;;;;;-146.19;100.00;58918.88;5070409;28;20068;-55
2022/05/24 10:43:38;;;;;;;3.95;1.90;;;;;;;-146.19;100.00;58918.88;5069514;28;20547;-50
2022/05/24 10:46:29;;;;;;;3.17;2.00;;;;;;;-146.19;100.00;58918.88;5067737;28;20064;-45
2022/05/24 10:49:04;;;;;;;2.00;1.70;;;;;;;-146.19;100.00;58918.88;5070531;28;20676;-52
2022/05/24 10:51:37;;;;;;;4.97;1.98;;;;;;;-146.19;100.00;58918.88;5073657;28;20128;-54
2022/05/24 10:54:10;;;;;;;3.15;1.65;;;;;;;-146.19;100.00;58918.88;5070649;28;20083;-51
2022/05/24 10:56:43;;;;;;;3.85;1.90;;;;;;;-146.19;100.00;58918.88;5070141;28;20067;-51
2022/05/24 10:59:18;;;;;;;4.05;2.00;;;;;;;-146.19;100.00;58918.88;5069151;28;20067;-48
2022/05/24 11:01:54;;;;;;;4.55;1.73;;;;;;;-146.19;100.00;58918.88;5069486;28;20471;-49
2022/05/24 11:04:26;;;;;;;3.85;1.95;;;;;;;-146.19;100.00;58918.88;5070027;28;20072;-51
2022/05/24 11:06:59;;;;;;;6.05;1.88;;;;;;;-146.19;100.00;58918.88;5066238;28;20079;-49
2022/05/24 11:09:29;;;;;;;4.80;2.22;;;;;;;-146.19;100.00;58918.88;5069943;28;20518;-51
2022/05/24 11:12:02;;;;;;;3.40;1.92;;;;;;;-146.19;100.00;58918.88;5070152;28;20072;-49
2022/05/24 11:14:35;;;;;;;3.67;1.98;;;;;;;-146.19;100.00;58918.88;5070425;28;20064;-46
2022/05/24 11:17:05;;;;;;;2.80;1.90;;;;;;;-146.19;100.00;58918.88;5070401;28;20072;-48
2022/05/24 11:19:36;;;;;;;2.95;1.98;;;;;;;-146.19;100.00;58918.88;5070072;28;20083;-48
2022/05/24 11:22:08;;;;;;;4.70;1.95;;;;;;;-146.19;100.00;58918.88;5070068;28;20084;-54
2022/05/24 11:24:42;;;;;;;4.40;2.00;;;;;;;-146.19;100.00;58918.88;5068183;28;20091;-51
2022/05/24 11:27:15;;;;;;;4.07;2.30;;;;;;;-146.19;100.00;58918.88;5064159;28;20439;-50
2022/05/24 11:29:47;;;;;;;4.80;2.30;;;;;;;-146.19;100.00;58918.88;5066758;28;20067;-49
2022/05/24 11:32:30;;;;;;;4.57;2.28;;;;;;;-146.19;100.00;58918.88;5060866;28;20075;-50
2022/05/24 11:35:03;;;;;;;3.75;2.20;;;;;;;-146.19;100.00;58918.88;5057231;28;20064;-54
2022/05/24 11:37:33;;;;;;;3.78;2.08;;;;;;;-146.19;100.00;58918.88;5063484;28;20064;-49
2022/05/24 11:40:31;;;;;;;3.47;2.08;;;;;;;-146.19;100.00;58918.88;5063773;28;20092;-48
2022/05/24 11:43:02;;;;;;;5.57;2.42;;;;;;;-146.19;100.00;58918.88;5060877;28;20076;-51
2022/05/24 11:45:54;;;;;;;4.45;2.20;;;;;;;-146.19;100.00;58918.88;5060735;28;20095;-50
2022/05/24 11:48:47;;;;;;;3.95;2.20;;;;;;;-146.19;100.00;58918.88;5066311;28;20064;-52
2022/05/24 11:51:36;;;;;;;4.35;2.42;;;;;;;-146.19;100.00;58918.88;5063060;28;20072;-47
2022/05/24 11:54:07;;;;;;;7.45;1.60;;;;;;;-146.19;100.00;58918.88;5066119;28;20072;-53
2022/05/24 11:56:38;;;;;;;1.83;1.02;;;;;;;-146.19;100.00;58918.88;5067675;28;20060;-51
2022/05/24 11:59:11;;;;;;;1.08;1.00;;;;;;;-146.19;100.00;58918.88;5066836;28;20581;-52
2022/05/24 12:01:43;;;;;;;2.55;1.00;;;;;;;-146.19;100.00;58918.88;5066397;28;20447;-51